Time;durP1;ratioP1;P1;durP2;ratioP2;P2;SDS_P1;SDS_P2;PMS_P1;PMS_P2;Temp;Humidity;BMP_temperature;BMP_pressure;BME280_temperature;BME280_humidity;BME280_pressure;Samples;Min_cycle;Max_cycle;Signal;HPM_P1;HPM_P2
2023/08/24 00:01:58;;;;;;;48.65;26.33;;;;;;;;;;5031660;28;20036;-67
2023/08/24 00:04:23;;;;;;;51.65;27.33;;;;;;;;;;5038520;28;20045;-69
2023/08/24 00:06:48;;;;;;;57.05;29.08;;;;;;;;;;5037450;28;20041;-68
2023/08/24 00:09:15;;;;;;;47.97;27.63;;;;;;;;;;5033701;28;20029;-69
2023/08/24 00:11:40;;;;;;;39.65;21.33;;;;;;;;;;5030900;28;20450;-69
2023/08/24 00:14:05;;;;;;;53.83;28.15;;;;;;;;;;5033979;28;20032;-67
2023/08/24 00:16:31;;;;;;;53.55;27.52;;;;;;;;;;5035500;28;20022;-66
2023/08/24 00:18:56;;;;;;;53.47;25.83;;;;;;;;;;5033143;28;20026;-66
2023/08/24 00:21:22;;;;;;;48.30;23.00;;;;;;;;;;5032894;28;20724;-66
2023/08/24 00:23:48;;;;;;;46.55;23.50;;;;;;;;;;5038831;28;20525;-68
2023/08/24 00:26:16;;;;;;;31.83;16.38;;;;;;;;;;5039717;28;20116;-68
2023/08/24 00:28:41;;;;;;;36.97;19.80;;;;;;;;;;5036284;28;20024;-68
2023/08/24 00:31:07;;;;;;;14.43;9.55;;;;;;;;;;5032338;28;20381;-68
2023/08/24 00:33:32;;;;;;;32.85;18.10;;;;;;;;;;5041909;28;20104;-68
2023/08/24 00:36:00;;;;;;;16.73;10.52;;;;;;;;;;5043567;28;20050;-68
2023/08/24 00:38:26;;;;;;;20.90;12.70;;;;;;;;;;5035205;28;20112;-68
2023/08/24 00:40:52;;;;;;;33.45;18.08;;;;;;;;;;5039622;28;20105;-68
2023/08/24 00:43:18;;;;;;;27.67;16.02;;;;;;;;;;5033461;28;20025;-68
2023/08/24 00:45:44;;;;;;;26.70;14.43;;;;;;;;;;5034834;28;20035;-68
2023/08/24 00:48:09;;;;;;;18.38;11.55;;;;;;;;;;5036330;28;20026;-67
2023/08/24 00:50:34;;;;;;;23.83;14.55;;;;;;;;;;5034209;28;20082;-67
2023/08/24 00:53:00;;;;;;;33.47;16.92;;;;;;;;;;5036634;28;20087;-67
2023/08/24 00:55:25;;;;;;;28.13;15.85;;;;;;;;;;5033371;28;20029;-67
2023/08/24 00:57:51;;;;;;;25.75;15.35;;;;;;;;;;5033046;28;20032;-68
2023/08/24 01:03:21;;;;;;;22.95;13.23;;;;;;;;;;5027471;28;20016;-67
2023/08/24 01:05:46;;;;;;;25.52;15.13;;;;;;;;;;5032918;28;20025;-67
2023/08/24 01:08:12;;;;;;;34.88;21.00;;;;;;;;;;5040239;28;20370;-67
2023/08/24 01:10:40;;;;;;;38.75;22.60;;;;;;;;;;5045070;28;20123;-67
2023/08/24 01:13:09;;;;;;;49.33;24.63;;;;;;;;;;5033864;28;20123;-67
2023/08/24 01:15:47;;;;;;;59.85;29.02;;;;;;;;;;5033415;28;20014;-67
2023/08/24 01:18:15;;;;;;;37.72;20.85;;;;;;;;;;5034419;28;20025;-67
2023/08/24 01:20:41;;;;;;;36.95;21.02;;;;;;;;;;5031198;28;20021;-67
2023/08/24 01:23:09;;;;;;;52.28;27.60;;;;;;;;;;5033860;28;20025;-67
2023/08/24 01:25:38;;;;;;;43.25;22.80;;;;;;;;;;5031418;28;20093;-67
2023/08/24 01:28:05;;;;;;;45.50;24.98;;;;;;;;;;5033360;28;20037;-67
2023/08/24 01:30:30;;;;;;;52.83;27.60;;;;;;;;;;5030791;28;20056;-67
2023/08/24 01:32:56;;;;;;;36.58;20.70;;;;;;;;;;5034208;28;20445;-67
2023/08/24 01:35:21;;;;;;;41.03;22.05;;;;;;;;;;5032494;28;20060;-67
2023/08/24 01:37:46;;;;;;;38.80;21.02;;;;;;;;;;5042762;28;20377;-67
2023/08/24 01:40:23;;;;;;;50.10;26.33;;;;;;;;;;5052050;28;20104;-67
2023/08/24 01:42:51;;;;;;;39.28;23.05;;;;;;;;;;5051392;28;20477;-68
2023/08/24 01:45:18;;;;;;;36.55;19.88;;;;;;;;;;5032163;28;20028;-68
2023/08/24 01:47:44;;;;;;;38.13;22.27;;;;;;;;;;5038153;28;20489;-67
2023/08/24 01:50:09;;;;;;;48.92;24.63;;;;;;;;;;5033052;28;20013;-67
2023/08/24 01:52:35;;;;;;;34.13;20.10;;;;;;;;;;5040141;28;20009;-67
2023/08/24 01:55:00;;;;;;;23.23;14.55;;;;;;;;;;5033741;28;20366;-67
2023/08/24 01:57:25;;;;;;;24.52;14.10;;;;;;;;;;5033108;28;20017;-67
2023/08/24 01:59:50;;;;;;;20.83;13.77;;;;;;;;;;5033204;28;20017;-67
2023/08/24 02:02:16;;;;;;;33.67;20.10;;;;;;;;;;5031618;28;20438;-67
2023/08/24 02:04:42;;;;;;;40.65;23.10;;;;;;;;;;5032461;28;20037;-67
2023/08/24 02:07:07;;;;;;;43.60;24.00;;;;;;;;;;5033362;28;20469;-67
2023/08/24 02:09:32;;;;;;;41.70;22.67;;;;;;;;;;5032738;28;20022;-67
2023/08/24 02:11:57;;;;;;;28.17;17.52;;;;;;;;;;5032664;28;20029;-67
2023/08/24 02:14:23;;;;;;;25.73;16.23;;;;;;;;;;5034985;28;20017;-68
2023/08/24 02:16:48;;;;;;;29.17;17.20;;;;;;;;;;5032117;28;20064;-66
2023/08/24 02:19:13;;;;;;;33.05;17.33;;;;;;;;;;5031964;28;20041;-67
2023/08/24 02:21:39;;;;;;;24.27;15.55;;;;;;;;;;5032701;28;20021;-67
2023/08/24 02:24:04;;;;;;;90.70;18.30;;;;;;;;;;5032630;28;20466;-67
2023/08/24 02:26:30;;;;;;;55.28;25.77;;;;;;;;;;5029425;28;20029;-67
2023/08/24 02:28:56;;;;;;;52.88;24.40;;;;;;;;;;5033376;28;20029;-67
2023/08/24 02:31:22;;;;;;;50.58;25.00;;;;;;;;;;5043747;28;20082;-67
2023/08/24 02:33:48;;;;;;;59.40;27.38;;;;;;;;;;5032488;28;20088;-67
2023/08/24 02:36:14;;;;;;;53.92;26.98;;;;;;;;;;5030610;28;20855;-68
2023/08/24 02:38:39;;;;;;;58.45;27.00;;;;;;;;;;5031958;28;20018;-67
2023/08/24 02:41:05;;;;;;;53.85;25.98;;;;;;;;;;5032998;28;20025;-67
2023/08/24 02:43:31;;;;;;;57.30;26.73;;;;;;;;;;5033655;28;20052;-64
2023/08/24 02:46:03;;;;;;;60.60;27.45;;;;;;;;;;5033814;28;20056;-64
2023/08/24 02:48:29;;;;;;;54.22;27.73;;;;;;;;;;5035365;28;20031;-64
2023/08/24 02:50:54;;;;;;;54.60;25.58;;;;;;;;;;5030650;28;20112;-65
2023/08/24 02:53:19;;;;;;;41.85;22.48;;;;;;;;;;5037193;28;20035;-64
2023/08/24 02:55:44;;;;;;;43.72;22.60;;;;;;;;;;5038336;28;20104;-65
2023/08/24 02:58:10;;;;;;;46.33;22.48;;;;;;;;;;5034728;28;20022;-64
2023/08/24 03:00:37;;;;;;;44.10;21.25;;;;;;;;;;5047697;28;20115;-65
2023/08/24 03:03:05;;;;;;;39.10;19.88;;;;;;;;;;5042610;28;20104;-64
2023/08/24 03:05:30;;;;;;;49.08;22.65;;;;;;;;;;5048848;28;20116;-65
2023/08/24 03:07:55;;;;;;;51.75;23.85;;;;;;;;;;5032725;28;20064;-65
2023/08/24 03:10:20;;;;;;;52.90;25.13;;;;;;;;;;5046456;28;20057;-64
2023/08/24 03:12:45;;;;;;;57.15;25.15;;;;;;;;;;5033548;28;20013;-64
2023/08/24 03:15:11;;;;;;;56.15;27.23;;;;;;;;;;5038447;28;20025;-64
2023/08/24 03:17:36;;;;;;;46.80;24.30;;;;;;;;;;5038454;28;20059;-64
2023/08/24 03:20:01;;;;;;;53.35;26.35;;;;;;;;;;5035751;28;20033;-63
2023/08/24 03:22:26;;;;;;;45.92;24.40;;;;;;;;;;5037677;28;20108;-65
2023/08/24 03:24:52;;;;;;;53.35;23.95;;;;;;;;;;5048781;28;20496;-65
2023/08/24 03:27:17;;;;;;;43.75;23.48;;;;;;;;;;5033412;28;20085;-65
2023/08/24 03:29:42;;;;;;;39.80;21.75;;;;;;;;;;5042720;28;20017;-65
2023/08/24 03:32:07;;;;;;;41.05;21.38;;;;;;;;;;5037080;28;20026;-65
2023/08/24 03:34:32;;;;;;;36.97;20.33;;;;;;;;;;5035829;28;20140;-65
2023/08/24 03:36:58;;;;;;;35.28;20.00;;;;;;;;;;5035849;28;20037;-65
2023/08/24 03:39:23;;;;;;;37.83;20.33;;;;;;;;;;5034623;28;20025;-65
2023/08/24 03:41:48;;;;;;;31.80;18.20;;;;;;;;;;5043533;28;20021;-64
2023/08/24 03:44:13;;;;;;;44.30;21.33;;;;;;;;;;5031046;28;20033;-64
2023/08/24 03:46:39;;;;;;;29.15;16.98;;;;;;;;;;5031678;28;20022;-66
2023/08/24 03:49:04;;;;;;;26.58;15.27;;;;;;;;;;5032496;28;20024;-65
2023/08/24 03:51:29;;;;;;;22.42;14.93;;;;;;;;;;5040301;28;20048;-66
2023/08/24 03:53:54;;;;;;;30.63;15.90;;;;;;;;;;5054344;28;20473;-67
2023/08/24 03:56:20;;;;;;;25.77;15.18;;;;;;;;;;5039964;28;20489;-67
2023/08/24 03:58:45;;;;;;;27.08;15.45;;;;;;;;;;5037092;28;20351;-67
2023/08/24 04:01:11;;;;;;;25.10;14.55;;;;;;;;;;5034812;28;20099;-68
2023/08/24 04:03:36;;;;;;;25.38;16.02;;;;;;;;;;5036446;28;20409;-68
2023/08/24 04:06:01;;;;;;;27.90;16.63;;;;;;;;;;5036068;28;20079;-67
2023/08/24 04:08:27;;;;;;;32.80;17.13;;;;;;;;;;5035890;28;20045;-68
2023/08/24 04:10:52;;;;;;;36.75;17.55;;;;;;;;;;5035102;28;20009;-67
2023/08/24 04:13:17;;;;;;;39.45;20.98;;;;;;;;;;5052535;28;20017;-67
2023/08/24 04:15:42;;;;;;;40.00;22.70;;;;;;;;;;5045051;28;20053;-67
2023/08/24 04:18:07;;;;;;;44.63;23.85;;;;;;;;;;5034610;28;20501;-68
2023/08/24 04:20:33;;;;;;;42.40;22.75;;;;;;;;;;5034942;28;20013;-68
2023/08/24 04:22:58;;;;;;;38.92;21.60;;;;;;;;;;5034842;28;20068;-67
2023/08/24 04:25:23;;;;;;;32.88;19.02;;;;;;;;;;5042126;28;20362;-68
2023/08/24 04:27:49;;;;;;;31.42;18.63;;;;;;;;;;5035085;28;20369;-68
2023/08/24 04:30:14;;;;;;;32.42;19.90;;;;;;;;;;5033817;28;20442;-67
2023/08/24 04:32:39;;;;;;;30.77;18.92;;;;;;;;;;5044759;28;20095;-68
2023/08/24 04:35:05;;;;;;;32.05;17.80;;;;;;;;;;5039009;28;20025;-68
2023/08/24 04:37:30;;;;;;;35.88;20.25;;;;;;;;;;5032251;28;20032;-67
2023/08/24 04:39:55;;;;;;;34.25;19.15;;;;;;;;;;5034268;28;20381;-68
2023/08/24 04:42:21;;;;;;;32.65;18.17;;;;;;;;;;5034275;28;21361;-68
2023/08/24 04:44:46;;;;;;;35.08;19.75;;;;;;;;;;5034219;28;20017;-68
2023/08/24 04:47:11;;;;;;;38.13;20.80;;;;;;;;;;5032898;28;20017;-67
2023/08/24 04:49:37;;;;;;;42.35;22.58;;;;;;;;;;5034909;28;20050;-68
2023/08/24 04:52:02;;;;;;;44.65;23.75;;;;;;;;;;5035374;28;20022;-68
2023/08/24 04:54:27;;;;;;;50.30;25.15;;;;;;;;;;5051240;28;20018;-67
2023/08/24 04:56:52;;;;;;;50.58;25.98;;;;;;;;;;5033318;28;20032;-67
2023/08/24 04:59:18;;;;;;;53.78;26.88;;;;;;;;;;5037096;28;20371;-68
2023/08/24 05:01:43;;;;;;;49.75;25.75;;;;;;;;;;5032928;28;20389;-68
2023/08/24 05:04:08;;;;;;;52.35;26.50;;;;;;;;;;5032122;28;20057;-65
2023/08/24 05:06:33;;;;;;;46.38;25.30;;;;;;;;;;5038021;28;20486;-64
2023/08/24 05:08:59;;;;;;;48.88;26.17;;;;;;;;;;5050533;28;20468;-66
2023/08/24 05:11:29;;;;;;;45.63;24.65;;;;;;;;;;5035163;28;20021;-64
2023/08/24 05:13:54;;;;;;;45.67;24.15;;;;;;;;;;5040107;28;20017;-64
2023/08/24 05:16:19;;;;;;;48.13;25.10;;;;;;;;;;5033521;28;20048;-66
2023/08/24 05:18:45;;;;;;;51.85;25.33;;;;;;;;;;5033633;28;20056;-63
2023/08/24 05:21:11;;;;;;;41.95;23.13;;;;;;;;;;5037496;28;20026;-63
2023/08/24 05:23:36;;;;;;;41.17;23.55;;;;;;;;;;5034518;28;20121;-64
2023/08/24 05:26:02;;;;;;;40.03;23.65;;;;;;;;;;5036904;28;20029;-63
2023/08/24 05:28:28;;;;;;;43.00;22.88;;;;;;;;;;5041544;28;20064;-66
2023/08/24 05:30:53;;;;;;;43.80;23.58;;;;;;;;;;5040207;28;20470;-62
2023/08/24 05:33:22;;;;;;;33.30;20.17;;;;;;;;;;5050060;28;20514;-60
2023/08/24 05:35:47;;;;;;;31.38;16.30;;;;;;;;;;5041722;28;20021;-60
2023/08/24 05:38:13;;;;;;;25.77;13.90;;;;;;;;;;5033487;28;20044;-59
2023/08/24 05:40:39;;;;;;;19.77;10.50;;;;;;;;;;5033669;28;20029;-58
2023/08/24 05:43:04;;;;;;;18.40;10.40;;;;;;;;;;5033298;28;20021;-59
2023/08/24 05:45:29;;;;;;;13.65;8.88;;;;;;;;;;5032892;28;20029;-59
2023/08/24 05:47:54;;;;;;;19.38;8.80;;;;;;;;;;5033355;28;20056;-59
2023/08/24 05:50:20;;;;;;;11.13;6.80;;;;;;;;;;5035845;28;20115;-59
2023/08/24 05:52:45;;;;;;;9.90;6.18;;;;;;;;;;5033362;28;20021;-61
2023/08/24 05:55:10;;;;;;;12.05;6.53;;;;;;;;;;5032891;28;20025;-62
2023/08/24 05:57:35;;;;;;;13.50;6.22;;;;;;;;;;5035093;28;20021;-59
2023/08/24 06:00:00;;;;;;;11.88;5.85;;;;;;;;;;5033097;28;20063;-62
2023/08/24 06:02:26;;;;;;;10.23;5.68;;;;;;;;;;5032703;28;20020;-60
2023/08/24 06:04:51;;;;;;;13.98;5.80;;;;;;;;;;5032543;28;20049;-59
2023/08/24 06:07:17;;;;;;;9.60;5.60;;;;;;;;;;5034605;28;20024;-61
2023/08/24 06:09:42;;;;;;;10.50;5.95;;;;;;;;;;5035230;28;20056;-60
2023/08/24 06:12:07;;;;;;;12.30;6.03;;;;;;;;;;5035917;28;20277;-60
2023/08/24 06:14:32;;;;;;;8.48;5.25;;;;;;;;;;5032589;28;20013;-60
2023/08/24 06:16:58;;;;;;;9.05;4.80;;;;;;;;;;5036308;28;20022;-61
2023/08/24 06:19:23;;;;;;;12.70;5.95;;;;;;;;;;5035883;28;20044;-60
2023/08/24 06:21:48;;;;;;;8.18;5.43;;;;;;;;;;5036364;28;20025;-61
2023/08/24 06:24:14;;;;;;;9.23;5.60;;;;;;;;;;5036040;28;20521;-61
2023/08/24 06:26:39;;;;;;;10.02;5.60;;;;;;;;;;5048466;28;20016;-60
2023/08/24 06:29:04;;;;;;;13.75;5.60;;;;;;;;;;5032712;28;20014;-61
2023/08/24 06:31:31;;;;;;;9.63;5.00;;;;;;;;;;5036307;28;20009;-61
2023/08/24 06:33:56;;;;;;;11.00;5.05;;;;;;;;;;5051219;28;20029;-61
2023/08/24 06:36:21;;;;;;;10.27;4.85;;;;;;;;;;5038839;28;20354;-61
2023/08/24 06:38:47;;;;;;;9.65;4.68;;;;;;;;;;5034757;28;20022;-61
2023/08/24 06:41:12;;;;;;;8.80;4.95;;;;;;;;;;5033278;28;20022;-62
2023/08/24 06:43:38;;;;;;;8.23;4.60;;;;;;;;;;5036509;28;20049;-61
2023/08/24 06:46:07;;;;;;;11.07;5.10;;;;;;;;;;5041480;28;20021;-62
2023/08/24 06:48:33;;;;;;;6.93;4.20;;;;;;;;;;5033494;28;20022;-62
2023/08/24 06:50:58;;;;;;;8.25;4.93;;;;;;;;;;5033622;28;20024;-63
2023/08/24 06:53:23;;;;;;;8.00;4.45;;;;;;;;;;5032003;28;20450;-61
2023/08/24 06:55:53;;;;;;;9.52;4.80;;;;;;;;;;5031981;28;20029;-61
2023/08/24 06:58:18;;;;;;;8.43;4.82;;;;;;;;;;5032115;28;20025;-62
2023/08/24 07:00:44;;;;;;;9.20;4.88;;;;;;;;;;5029637;28;20025;-61
2023/08/24 07:03:10;;;;;;;9.50;5.53;;;;;;;;;;5031951;28;20397;-61
2023/08/24 07:05:35;;;;;;;10.35;5.47;;;;;;;;;;5032367;28;20037;-61
2023/08/24 07:08:00;;;;;;;8.65;5.45;;;;;;;;;;5032220;28;20520;-61
2023/08/24 07:10:25;;;;;;;12.20;6.00;;;;;;;;;;5032907;28;20028;-62
2023/08/24 07:12:51;;;;;;;11.60;5.53;;;;;;;;;;5035327;28;20018;-61
2023/08/24 07:15:16;;;;;;;10.68;5.85;;;;;;;;;;5032283;28;20121;-61
2023/08/24 07:17:41;;;;;;;8.98;5.72;;;;;;;;;;5032045;28;20476;-61
2023/08/24 07:20:11;;;;;;;11.98;5.97;;;;;;;;;;5032311;28;20025;-61
2023/08/24 07:22:36;;;;;;;10.88;6.38;;;;;;;;;;5032235;28;20021;-62
2023/08/24 07:25:05;;;;;;;9.55;5.70;;;;;;;;;;5034039;28;20477;-61
2023/08/24 07:27:30;;;;;;;9.35;5.82;;;;;;;;;;5036075;28;20458;-63
2023/08/24 07:29:55;;;;;;;41.70;7.97;;;;;;;;;;5035965;28;20014;-64
2023/08/24 07:32:21;;;;;;;13.45;6.07;;;;;;;;;;5036001;28;20434;-64
2023/08/24 07:34:46;;;;;;;9.27;5.55;;;;;;;;;;5035745;28;20450;-62
2023/08/24 07:37:11;;;;;;;12.00;5.93;;;;;;;;;;5043495;28;20019;-63
2023/08/24 07:39:37;;;;;;;9.65;5.97;;;;;;;;;;5031669;28;20056;-65
2023/08/24 07:42:03;;;;;;;10.43;5.45;;;;;;;;;;5035843;28;20515;-64
2023/08/24 07:44:28;;;;;;;11.00;5.45;;;;;;;;;;5036022;28;20021;-65
2023/08/24 07:46:53;;;;;;;11.35;5.75;;;;;;;;;;5035475;28;20469;-65
2023/08/24 07:49:18;;;;;;;11.02;5.88;;;;;;;;;;5035633;28;20377;-63
2023/08/24 07:51:44;;;;;;;13.88;5.65;;;;;;;;;;5035548;28;20017;-64
2023/08/24 07:54:09;;;;;;;9.68;5.80;;;;;;;;;;5035520;28;20021;-61
2023/08/24 07:56:35;;;;;;;8.73;5.32;;;;;;;;;;5035461;28;20521;-62
2023/08/24 07:59:00;;;;;;;10.80;4.60;;;;;;;;;;5035155;28;20056;-61
2023/08/24 08:01:25;;;;;;;6.60;3.72;;;;;;;;;;5035057;28;20428;-62
2023/08/24 08:03:51;;;;;;;9.63;4.13;;;;;;;;;;5034734;28;20068;-62
2023/08/24 08:06:16;;;;;;;7.40;4.30;;;;;;;;;;5035212;28;20022;-61
2023/08/24 08:08:42;;;;;;;9.82;4.60;;;;;;;;;;5034954;28;20482;-60
2023/08/24 08:11:07;;;;;;;7.45;4.38;;;;;;;;;;5053365;28;20044;-61
2023/08/24 08:13:32;;;;;;;7.95;4.47;;;;;;;;;;5053564;28;20096;-62
2023/08/24 08:16:03;;;;;;;8.75;4.50;;;;;;;;;;5053491;28;20036;-62
2023/08/24 08:18:28;;;;;;;9.10;4.55;;;;;;;;;;5031835;28;20428;-62
2023/08/24 08:20:54;;;;;;;8.18;4.30;;;;;;;;;;5034758;28;20096;-62
2023/08/24 08:23:19;;;;;;;8.75;4.57;;;;;;;;;;5035235;28;20019;-60
2023/08/24 08:25:44;;;;;;;7.50;3.83;;;;;;;;;;5034916;28;20025;-60
2023/08/24 08:28:09;;;;;;;10.15;3.75;;;;;;;;;;5034806;28;20022;-61
2023/08/24 08:30:35;;;;;;;8.23;4.00;;;;;;;;;;5034921;28;20092;-64
2023/08/24 08:33:01;;;;;;;6.47;3.60;;;;;;;;;;5034292;28;20106;-63
2023/08/24 08:35:26;;;;;;;7.70;4.10;;;;;;;;;;5034392;28;20087;-66
2023/08/24 08:37:53;;;;;;;9.30;3.58;;;;;;;;;;5034674;28;20484;-66
2023/08/24 08:40:19;;;;;;;6.97;3.40;;;;;;;;;;5037024;28;20021;-66
2023/08/24 08:42:44;;;;;;;7.28;3.75;;;;;;;;;;5033483;28;20019;-67
2023/08/24 08:45:10;;;;;;;8.93;4.18;;;;;;;;;;5034619;28;20049;-66
2023/08/24 08:47:35;;;;;;;7.43;3.35;;;;;;;;;;5034238;28;20100;-66
2023/08/24 08:50:02;;;;;;;5.97;2.65;;;;;;;;;;5034134;28;20025;-67
2023/08/24 08:52:28;;;;;;;5.00;2.60;;;;;;;;;;5053226;28;20473;-66
2023/08/24 08:54:53;;;;;;;8.10;3.20;;;;;;;;;;5053026;28;20092;-67
2023/08/24 08:57:19;;;;;;;6.07;3.08;;;;;;;;;;5052601;28;20411;-67
2023/08/24 08:59:44;;;;;;;6.43;3.28;;;;;;;;;;5053075;28;20009;-68
2023/08/24 09:02:12;;;;;;;7.70;3.42;;;;;;;;;;5052583;28;20020;-67
2023/08/24 09:04:38;;;;;;;5.18;3.00;;;;;;;;;;5052186;28;20402;-67
2023/08/24 09:07:10;;;;;;;6.63;2.80;;;;;;;;;;5046221;28;20484;-66
2023/08/24 09:09:35;;;;;;;6.32;3.05;;;;;;;;;;5048766;28;20461;-66
2023/08/24 09:12:00;;;;;;;8.35;3.22;;;;;;;;;;5052473;28;20032;-67
2023/08/24 09:14:26;;;;;;;8.55;3.25;;;;;;;;;;5051262;28;20433;-66
2023/08/24 09:16:51;;;;;;;7.40;2.92;;;;;;;;;;5033776;28;20086;-66
2023/08/24 09:19:16;;;;;;;5.82;3.00;;;;;;;;;;5033625;28;20117;-66
2023/08/24 09:21:42;;;;;;;6.95;3.25;;;;;;;;;;5033571;28;20143;-66
2023/08/24 09:24:07;;;;;;;6.00;3.20;;;;;;;;;;5034086;28;20063;-66
2023/08/24 09:26:34;;;;;;;7.03;2.80;;;;;;;;;;5033747;28;20740;-67
2023/08/24 09:29:00;;;;;;;9.38;3.22;;;;;;;;;;5033437;28;20037;-66
2023/08/24 09:31:43;;;;;;;6.72;3.13;;;;;;;;;;5033543;28;20025;-67
2023/08/24 09:34:09;;;;;;;6.43;3.22;;;;;;;;;;5033003;28;20020;-66
2023/08/24 09:36:35;;;;;;;5.85;3.00;;;;;;;;;;5033369;28;20025;-67
2023/08/24 09:39:00;;;;;;;9.40;3.17;;;;;;;;;;5033209;28;20112;-66
2023/08/24 09:41:39;;;;;;;6.90;2.72;;;;;;;;;;5033473;28;20104;-67
2023/08/24 09:44:05;;;;;;;7.95;3.10;;;;;;;;;;5033551;28;20025;-67
2023/08/24 09:46:30;;;;;;;7.43;2.80;;;;;;;;;;5032309;28;20070;-67
2023/08/24 09:48:58;;;;;;;4.57;2.53;;;;;;;;;;5033167;28;20028;-67
2023/08/24 09:51:26;;;;;;;4.25;2.17;;;;;;;;;;5033033;28;20477;-67
2023/08/24 09:53:51;;;;;;;5.20;2.72;;;;;;;;;;5032943;28;20072;-68
2023/08/24 09:56:16;;;;;;;7.25;2.63;;;;;;;;;;5032497;28;20014;-62
2023/08/24 09:58:43;;;;;;;7.15;2.58;;;;;;;;;;5032835;28;20111;-63
2023/08/24 10:01:09;;;;;;;6.90;2.50;;;;;;;;;;5051686;28;20405;-64
2023/08/24 10:03:37;;;;;;;7.85;2.92;;;;;;;;;;5051378;28;20505;-62
2023/08/24 10:06:03;;;;;;;6.65;2.75;;;;;;;;;;5051600;28;20120;-65
2023/08/24 10:08:39;;;;;;;5.85;2.47;;;;;;;;;;5051796;28;20519;-64
2023/08/24 10:11:05;;;;;;;4.40;2.17;;;;;;;;;;5051581;28;20021;-62
2023/08/24 10:13:44;;;;;;;5.05;2.25;;;;;;;;;;5051246;28;20020;-62
2023/08/24 10:16:12;;;;;;;7.25;2.40;;;;;;;;;;5051443;28;20477;-60
2023/08/24 10:18:38;;;;;;;5.03;2.30;;;;;;;;;;5051143;28;20028;-61
2023/08/24 10:21:04;;;;;;;5.78;2.10;;;;;;;;;;5044681;28;20026;-62
2023/08/24 10:23:41;;;;;;;4.45;2.45;;;;;;;;;;5032432;28;20017;-70
2023/08/24 10:26:07;;;;;;;5.28;2.30;;;;;;;;;;5032514;28;20021;-63
2023/08/24 10:28:33;;;;;;;5.20;2.10;;;;;;;;;;5035457;28;20021;-63
2023/08/24 10:30:59;;;;;;;5.90;2.45;;;;;;;;;;5040796;28;20444;-63
2023/08/24 10:33:26;;;;;;;5.35;2.30;;;;;;;;;;5032543;28;20096;-64
2023/08/24 10:35:52;;;;;;;5.85;2.47;;;;;;;;;;5032665;28;20075;-66
2023/08/24 10:38:29;;;;;;;5.47;2.22;;;;;;;;;;5031649;28;20373;-68
2023/08/24 10:41:03;;;;;;;4.63;2.33;;;;;;;;;;5032269;28;20021;-68
2023/08/24 10:43:28;;;;;;;7.22;2.58;;;;;;;;;;5032771;28;20029;-66
2023/08/24 10:45:53;;;;;;;5.20;2.33;;;;;;;;;;5032496;28;20022;-64
2023/08/24 10:48:19;;;;;;;5.57;2.50;;;;;;;;;;5040334;28;20568;-64
2023/08/24 10:51:04;;;;;;;5.63;2.30;;;;;;;;;;5046162;28;20365;-63
2023/08/24 10:53:39;;;;;;;4.68;2.03;;;;;;;;;;5050985;28;20024;-66
2023/08/24 10:56:12;;;;;;;8.25;2.40;;;;;;;;;;5036978;28;20017;-65
2023/08/24 10:58:37;;;;;;;5.18;2.30;;;;;;;;;;5053344;28;20468;-66
2023/08/24 11:01:02;;;;;;;6.65;2.38;;;;;;;;;;5054840;28;20108;-66
2023/08/24 11:03:34;;;;;;;7.20;2.63;;;;;;;;;;5054909;28;20037;-67
2023/08/24 11:05:59;;;;;;;6.75;2.47;;;;;;;;;;5053568;28;20546;-71
2023/08/24 11:08:43;;;;;;;6.45;2.30;;;;;;;;;;5055042;28;20092;-71
2023/08/24 11:11:18;;;;;;;6.15;2.10;;;;;;;;;;5050766;28;20104;-71
2023/08/24 11:14:03;;;;;;;6.00;2.00;;;;;;;;;;5040550;28;20013;-70
2023/08/24 11:16:38;;;;;;;4.80;1.85;;;;;;;;;;5041664;28;20496;-70
2023/08/24 11:19:04;;;;;;;3.33;1.75;;;;;;;;;;5036269;28;20053;-69
2023/08/24 11:21:30;;;;;;;6.10;2.10;;;;;;;;;;5037741;28;20027;-70
2023/08/24 11:23:55;;;;;;;5.50;2.40;;;;;;;;;;5044230;28;20104;-70
2023/08/24 11:26:21;;;;;;;5.22;2.33;;;;;;;;;;5042076;28;20108;-71
2023/08/24 11:28:52;;;;;;;6.22;2.40;;;;;;;;;;5054312;28;20082;-70
2023/08/24 11:31:18;;;;;;;5.43;2.47;;;;;;;;;;5036556;28;20045;-71
2023/08/24 11:33:43;;;;;;;5.30;2.20;;;;;;;;;;5038039;28;20041;-70
2023/08/24 11:36:08;;;;;;;7.30;2.60;;;;;;;;;;5035775;28;20342;-71
2023/08/24 11:38:41;;;;;;;8.93;2.40;;;;;;;;;;5040319;28;20484;-70
2023/08/24 11:41:17;;;;;;;6.85;2.20;;;;;;;;;;5054681;28;20377;-69
2023/08/24 11:43:43;;;;;;;4.95;2.03;;;;;;;;;;5054329;28;20028;-69
2023/08/24 11:46:08;;;;;;;4.00;2.00;;;;;;;;;;5046968;28;20045;-69
2023/08/24 11:48:36;;;;;;;4.95;2.10;;;;;;;;;;5035388;28;20064;-69
2023/08/24 11:51:01;;;;;;;6.60;1.98;;;;;;;;;;5039492;28;20051;-70
2023/08/24 11:53:29;;;;;;;5.60;2.03;;;;;;;;;;5035324;28;20092;-70
2023/08/24 11:55:54;;;;;;;3.50;1.90;;;;;;;;;;5031520;28;20018;-70
2023/08/24 11:58:20;;;;;;;4.88;2.00;;;;;;;;;;5045261;28;20024;-70
2023/08/24 12:00:46;;;;;;;5.85;2.30;;;;;;;;;;5045853;28;20167;-70
2023/08/24 12:03:11;;;;;;;5.60;2.10;;;;;;;;;;5046385;28;20096;-71
2023/08/24 12:05:37;;;;;;;5.88;2.28;;;;;;;;;;5043902;28;20500;-71
2023/08/24 12:08:02;;;;;;;4.28;1.90;;;;;;;;;;5039136;28;20021;-71
2023/08/24 12:10:28;;;;;;;4.05;1.85;;;;;;;;;;5034196;28;20087;-71
2023/08/24 12:13:04;;;;;;;6.05;2.20;;;;;;;;;;5035340;28;20021;-71
2023/08/24 12:15:29;;;;;;;5.97;2.20;;;;;;;;;;5034961;28;20017;-71
2023/08/24 12:17:54;;;;;;;4.32;1.90;;;;;;;;;;5039273;28;20028;-71
2023/08/24 12:20:23;;;;;;;6.85;2.10;;;;;;;;;;5034787;28;20013;-71
2023/08/24 12:22:52;;;;;;;5.00;2.20;;;;;;;;;;5042252;28;20771;-72
2023/08/24 12:25:17;;;;;;;4.70;1.90;;;;;;;;;;5051112;28;20024;-72
2023/08/24 12:27:42;;;;;;;5.85;1.92;;;;;;;;;;5034576;28;20018;-72
2023/08/24 12:30:10;;;;;;;4.82;1.80;;;;;;;;;;5038714;28;20024;-68
2023/08/24 12:32:45;;;;;;;4.10;2.10;;;;;;;;;;5032059;28;20457;-72
2023/08/24 12:35:11;;;;;;;5.10;1.70;;;;;;;;;;5033972;28;20024;-70
2023/08/24 12:37:36;;;;;;;4.65;1.90;;;;;;;;;;5052143;28;20021;-72
2023/08/24 12:40:05;;;;;;;4.78;1.88;;;;;;;;;;5049045;28;20032;-72
2023/08/24 12:42:31;;;;;;;5.38;1.75;;;;;;;;;;5034430;28;20071;-72
2023/08/24 12:44:56;;;;;;;5.97;2.25;;;;;;;;;;5034412;28;20025;-71
2023/08/24 12:47:21;;;;;;;5.10;2.10;;;;;;;;;;5039825;28;20031;-71
2023/08/24 12:49:47;;;;;;;5.43;2.30;;;;;;;;;;5041473;28;20019;-72
2023/08/24 12:52:12;;;;;;;4.55;2.10;;;;;;;;;;5053068;28;20025;-71
2023/08/24 12:54:37;;;;;;;5.80;2.03;;;;;;;;;;5053369;28;20040;-71
2023/08/24 12:57:02;;;;;;;6.80;2.00;;;;;;;;;;5045009;28;20017;-72
2023/08/24 12:59:28;;;;;;;5.90;1.92;;;;;;;;;;5053512;28;20027;-71
2023/08/24 13:01:53;;;;;;;4.57;2.00;;;;;;;;;;5052981;28;20036;-73
2023/08/24 13:04:18;;;;;;;7.28;2.30;;;;;;;;;;5052148;28;20051;-71
2023/08/24 13:06:43;;;;;;;3.95;1.73;;;;;;;;;;5034275;28;20466;-72
2023/08/24 13:09:09;;;;;;;4.53;1.92;;;;;;;;;;5034191;28;20440;-72
2023/08/24 13:11:34;;;;;;;4.55;1.90;;;;;;;;;;5032650;28;20096;-72
2023/08/24 13:14:01;;;;;;;3.38;1.77;;;;;;;;;;5036514;28;20409;-72
2023/08/24 13:16:27;;;;;;;5.53;2.17;;;;;;;;;;5043924;28;20017;-72
2023/08/24 13:18:53;;;;;;;6.97;2.10;;;;;;;;;;5035505;28;20369;-70
2023/08/24 13:21:18;;;;;;;7.10;2.08;;;;;;;;;;5033841;28;20021;-70
2023/08/24 13:23:43;;;;;;;4.72;2.05;;;;;;;;;;5046319;28;20367;-69
2023/08/24 13:26:16;;;;;;;5.40;2.20;;;;;;;;;;5033242;28;20084;-70
2023/08/24 13:28:41;;;;;;;5.88;2.10;;;;;;;;;;5033881;28;20022;-64
2023/08/24 13:31:08;;;;;;;5.70;2.35;;;;;;;;;;5037744;28;20029;-68
2023/08/24 13:33:33;;;;;;;5.57;2.00;;;;;;;;;;5029701;28;20406;-67
2023/08/24 13:35:58;;;;;;;6.25;2.28;;;;;;;;;;5033863;28;20099;-68
2023/08/24 13:38:23;;;;;;;6.80;1.83;;;;;;;;;;5033777;28;20195;-68
2023/08/24 13:40:49;;;;;;;4.53;2.00;;;;;;;;;;5033076;28;20021;-69
2023/08/24 13:43:15;;;;;;;6.50;2.53;;;;;;;;;;5033684;28;20380;-68
2023/08/24 13:45:40;;;;;;;8.10;2.80;;;;;;;;;;5045684;28;20107;-66
2023/08/24 13:48:06;;;;;;;5.70;2.00;;;;;;;;;;5051967;28;20012;-68
2023/08/24 13:50:31;;;;;;;4.53;1.95;;;;;;;;;;5051658;28;20048;-71
2023/08/24 13:52:56;;;;;;;5.03;1.90;;;;;;;;;;5051639;28;20052;-69
2023/08/24 13:55:22;;;;;;;5.70;2.00;;;;;;;;;;5051908;28;20013;-67
2023/08/24 13:57:47;;;;;;;4.93;1.95;;;;;;;;;;5037709;28;20009;-67
2023/08/24 14:00:12;;;;;;;8.02;2.20;;;;;;;;;;5033118;28;20014;-69
2023/08/24 14:02:38;;;;;;;5.80;2.45;;;;;;;;;;5044868;28;20024;-68
2023/08/24 14:05:03;;;;;;;5.80;2.28;;;;;;;;;;5036591;28;20049;-66
2023/08/24 14:07:29;;;;;;;5.97;2.20;;;;;;;;;;5050416;28;20013;-65
2023/08/24 14:09:54;;;;;;;5.65;2.20;;;;;;;;;;5051708;28;20013;-67
2023/08/24 14:12:19;;;;;;;6.75;2.17;;;;;;;;;;5051438;28;20021;-65
2023/08/24 14:14:44;;;;;;;5.47;2.30;;;;;;;;;;5051542;28;20017;-65
2023/08/24 14:17:10;;;;;;;7.70;2.30;;;;;;;;;;5051479;28;20078;-67
2023/08/24 14:19:35;;;;;;;7.53;2.40;;;;;;;;;;5051519;28;20120;-65
2023/08/24 14:22:00;;;;;;;6.40;2.17;;;;;;;;;;5033402;28;20029;-67
2023/08/24 14:24:25;;;;;;;4.93;2.17;;;;;;;;;;5037735;28;20018;-67
2023/08/24 14:26:50;;;;;;;6.80;2.45;;;;;;;;;;5033212;28;20009;-68
2023/08/24 14:29:16;;;;;;;4.88;2.30;;;;;;;;;;5032162;28;20418;-64